createdAt,value
2019-03-31T08:48:41.739Z,11.86
2019-03-31T08:53:46.416Z,12.24
2019-03-31T08:58:51.087Z,12.73
2019-03-31T09:03:55.852Z,12.71
2019-03-31T09:09:00.681Z,13.67
2019-03-31T09:14:05.887Z,14.10
2019-03-31T09:19:10.786Z,13.83
2019-03-31T09:24:15.677Z,13.81
2019-03-31T09:29:20.543Z,14.58
2019-03-31T09:34:28.445Z,15.00
2019-03-31T09:39:33.984Z,14.81
2019-03-31T09:44:38.992Z,14.72
2019-03-31T09:49:43.760Z,14.43
2019-03-31T09:54:48.529Z,14.43
2019-03-31T09:59:53.224Z,14.32
2019-03-31T10:04:57.843Z,14.00
2019-03-31T10:10:02.757Z,14.44
2019-03-31T10:15:08.318Z,13.77
2019-03-31T10:20:13.441Z,14.97
2019-03-31T10:25:18.139Z,14.66
2019-03-31T10:30:31.406Z,14.97
2019-03-31T10:40:48.672Z,15.10
2019-03-31T10:45:53.524Z,14.62
2019-03-31T10:50:58.890Z,14.85
2019-03-31T10:56:04.114Z,14.11
2019-03-31T11:01:08.761Z,15.66
2019-03-31T11:06:13.506Z,15.29
2019-03-31T11:11:18.350Z,16.04
2019-03-31T11:16:23.229Z,15.60
2019-03-31T11:21:28.153Z,15.48
2019-03-31T11:26:32.934Z,15.76
2019-03-31T11:31:37.839Z,15.90
2019-03-31T11:36:42.729Z,16.21
2019-03-31T11:41:48.020Z,16.08
2019-03-31T11:46:52.952Z,15.15
2019-03-31T11:51:57.741Z,15.86
2019-03-31T11:57:02.634Z,16.10
2019-03-31T12:02:07.968Z,15.49
2019-03-31T12:07:26.951Z,14.96
2019-03-31T12:12:19.660Z,15.45
2019-03-31T12:17:24.420Z,16.04
2019-03-31T12:22:29.259Z,15.46
2019-03-31T12:27:34.393Z,14.93
2019-03-31T12:32:39.361Z,15.01
2019-03-31T12:37:44.360Z,14.95
2019-03-31T12:42:49.183Z,15.14
2019-03-31T12:47:53.898Z,15.33
2019-03-31T12:52:58.714Z,14.89
2019-03-31T12:58:03.579Z,14.37
2019-03-31T13:03:08.420Z,14.17
2019-03-31T13:08:13.519Z,14.91
2019-03-31T13:13:19.809Z,14.61
2019-03-31T13:18:27.787Z,13.86
2019-03-31T13:23:31.180Z,14.17
2019-03-31T13:28:36.120Z,13.76
2019-03-31T13:33:41.033Z,13.72
2019-03-31T13:38:46.149Z,13.55
2019-03-31T13:43:52.183Z,13.66
2019-03-31T13:48:57.001Z,13.91
2019-03-31T13:54:01.824Z,13.92
2019-03-31T13:59:09.241Z,14.09
2019-03-31T14:04:14.341Z,13.72
2019-03-31T14:09:19.149Z,14.12
2019-03-31T14:14:23.943Z,13.83
2019-03-31T14:19:28.784Z,13.66
2019-03-31T14:24:33.677Z,13.54
2019-03-31T14:29:38.621Z,13.22
2019-03-31T14:34:43.673Z,13.62
2019-03-31T14:39:48.788Z,13.77
2019-03-31T14:44:53.921Z,13.46
2019-03-31T14:49:58.982Z,13.13
2019-03-31T14:55:04.024Z,13.27
2019-03-31T15:00:14.901Z,13.18
2019-03-31T15:05:18.501Z,13.04
2019-03-31T15:10:23.362Z,12.86
2019-03-31T15:15:30.941Z,13.25
2019-03-31T15:20:36.075Z,13.12
2019-03-31T15:25:43.187Z,13.10
2019-03-31T15:30:47.861Z,13.05
2019-03-31T15:35:54.281Z,12.50
2019-03-31T15:40:59.129Z,13.18
2019-03-31T15:46:04.282Z,12.98
2019-03-31T15:51:09.172Z,12.98
2019-03-31T15:56:14.040Z,13.08
2019-03-31T16:01:20.001Z,13.20
2019-03-31T16:06:27.422Z,13.03
2019-03-31T16:11:31.941Z,12.82
2019-03-31T16:16:36.813Z,12.73
2019-03-31T16:21:44.099Z,12.67
2019-03-31T16:26:47.341Z,12.88
2019-03-31T16:31:51.968Z,12.55
2019-03-31T16:36:56.249Z,12.45
2019-03-31T16:42:00.427Z,12.33
2019-03-31T16:47:04.850Z,12.11
2019-03-31T16:52:09.032Z,12.03
2019-03-31T16:57:13.227Z,12.21
2019-03-31T17:02:17.507Z,12.07
2019-03-31T17:07:23.651Z,12.01
2019-03-31T17:12:28.293Z,11.75
2019-03-31T17:17:32.566Z,11.64
2019-03-31T17:22:38.967Z,11.64
2019-03-31T17:27:43.600Z,11.54
2019-03-31T17:32:47.865Z,11.44
2019-03-31T17:37:52.146Z,11.32
2019-03-31T17:42:56.726Z,11.18
2019-03-31T17:48:02.107Z,11.11
2019-03-31T17:53:06.798Z,11.05
2019-03-31T17:58:11.146Z,10.83
2019-03-31T18:03:15.777Z,10.83
2019-03-31T18:08:20.007Z,10.65
2019-03-31T18:13:24.650Z,10.62
2019-03-31T18:18:28.967Z,10.51
2019-03-31T18:23:34.846Z,10.47
2019-03-31T18:28:39.266Z,10.32
2019-03-31T18:33:43.580Z,10.31
2019-03-31T18:38:48.047Z,10.27
2019-03-31T18:43:52.386Z,10.16
2019-03-31T18:48:56.907Z,10.11
2019-03-31T18:54:01.149Z,10.14
2019-03-31T18:59:05.425Z,10.08
2019-03-31T19:04:09.958Z,9.97
2019-03-31T19:09:14.349Z,9.89
2019-03-31T19:14:18.674Z,9.91
2019-03-31T19:19:25.626Z,10.09
2019-03-31T19:24:29.887Z,9.91
2019-03-31T19:29:34.069Z,9.91
2019-03-31T19:34:38.258Z,9.93
2019-03-31T19:39:42.488Z,9.90
2019-03-31T19:44:46.726Z,9.98
2019-03-31T19:49:52.926Z,9.94
2019-03-31T19:54:57.112Z,9.78
2019-03-31T20:00:04.687Z,9.47
2019-03-31T20:05:08.947Z,9.56
2019-03-31T20:10:14.471Z,9.58
2019-03-31T20:15:18.952Z,9.86
2019-03-31T20:20:23.236Z,9.65
2019-03-31T20:25:27.594Z,9.66
2019-03-31T20:30:31.806Z,9.66
2019-03-31T20:35:36.038Z,9.67
2019-03-31T20:40:41.027Z,9.65
2019-03-31T20:45:45.306Z,9.73
2019-03-31T20:50:50.465Z,9.69
2019-03-31T20:55:54.926Z,9.62
2019-03-31T21:00:59.357Z,9.75
2019-03-31T21:06:03.707Z,9.55
2019-03-31T21:11:09.066Z,9.60
2019-03-31T21:16:13.399Z,9.28
2019-03-31T21:21:17.825Z,9.44
2019-03-31T21:26:22.006Z,9.42
2019-03-31T21:31:28.239Z,9.32
2019-03-31T21:36:32.605Z,9.50
2019-03-31T21:41:36.906Z,9.45
2019-03-31T21:46:41.140Z,9.28
2019-03-31T21:51:46.406Z,9.23
2019-03-31T21:56:50.827Z,9.27
2019-03-31T22:01:58.226Z,9.10
2019-03-31T22:07:02.870Z,9.19
2019-03-31T22:12:07.112Z,9.23
2019-03-31T22:17:11.347Z,9.19
2019-03-31T22:22:15.608Z,9.22
2019-03-31T22:27:19.968Z,9.18
2019-03-31T22:32:24.354Z,9.09
2019-03-31T22:37:28.668Z,9.09
2019-03-31T22:42:32.897Z,9.18
2019-03-31T22:47:37.126Z,9.18
2019-03-31T22:52:42.342Z,9.19
2019-03-31T22:57:46.783Z,8.96
2019-03-31T23:02:51.223Z,8.97
2019-03-31T23:07:55.587Z,9.11
2019-03-31T23:12:59.857Z,8.81
2019-03-31T23:18:04.106Z,9.07
2019-03-31T23:23:08.464Z,8.88
2019-03-31T23:28:12.707Z,8.82
2019-03-31T23:38:54.049Z,8.80
2019-03-31T23:43:58.524Z,8.78
2019-03-31T23:49:02.755Z,8.79
2019-03-31T23:54:08.026Z,8.57
2019-03-31T23:59:12.336Z,8.55
